Time,TemperatureF,DewpointF,PressureIn,WindDirection,WindDirectionDegrees,WindSpeedMPH,WindSpeedGustMPH,Humidity,HourlyPrecipIn,Conditions,Clouds,dailyrainin,SoftwareType,DateUTC
2013-03-28 00:02:00,48.0,33.0,30.28,ESE,103,0.0,0.0,55,0.00,,,0.00,,2013-03-28 05:02:00,
2013-03-28 00:12:00,48.0,33.0,30.28,ESE,103,0.0,0.0,55,0.00,,,0.00,,2013-03-28 05:12:00,
2013-03-28 00:22:00,47.0,33.0,30.28,ESE,103,0.0,0.0,58,0.00,,,0.00,,2013-03-28 05:22:00,
2013-03-28 00:32:00,46.0,34.0,30.28,ESE,103,0.0,0.0,62,0.00,,,0.00,,2013-03-28 05:32:00,
2013-03-28 00:42:00,46.0,34.0,30.28,ESE,103,0.0,0.0,62,0.00,,,0.00,,2013-03-28 05:42:00,
2013-03-28 00:52:00,44.0,34.0,30.29,ESE,103,0.0,0.0,69,0.00,,,0.00,,2013-03-28 05:52:00,
2013-03-28 01:02:00,44.0,35.0,30.29,ESE,103,0.0,0.0,71,0.00,,,0.00,,2013-03-28 06:02:00,
2013-03-28 01:12:00,44.0,35.0,30.29,ESE,103,0.0,0.0,71,0.00,,,0.00,,2013-03-28 06:12:00,
2013-03-28 01:22:00,44.0,35.0,30.29,ESE,103,0.0,0.0,71,0.00,,,0.00,,2013-03-28 06:22:00,
2013-03-28 01:32:00,44.0,35.0,30.29,ESE,103,0.0,0.0,70,0.00,,,0.00,,2013-03-28 06:32:00,
2013-03-28 01:42:00,44.0,35.0,30.29,ESE,103,0.0,0.0,70,0.00,,,0.00,,2013-03-28 06:42:00,
2013-03-28 01:52:00,42.0,36.0,30.29,East,85,0.0,3.0,79,0.00,,,0.00,,2013-03-28 06:52:00,
2013-03-28 02:02:00,43.0,35.0,30.29,East,85,0.0,0.0,72,0.00,,,0.00,,2013-03-28 07:02:00,
2013-03-28 02:12:00,43.0,35.0,30.29,East,85,0.0,0.0,72,0.00,,,0.00,,2013-03-28 07:12:00,
2013-03-28 02:22:00,43.0,37.0,30.29,East,85,0.0,0.0,79,0.00,,,0.00,,2013-03-28 07:22:00,
2013-03-28 02:32:00,42.0,36.0,30.29,East,85,0.0,0.0,79,0.00,,,0.00,,2013-03-28 07:32:00,
2013-03-28 02:42:00,42.0,36.0,30.29,East,85,0.0,0.0,79,0.00,,,0.00,,2013-03-28 07:42:00,
2013-03-28 02:52:00,41.0,35.0,30.29,East,83,1.0,2.0,78,0.00,,,0.00,,2013-03-28 07:52:00,
2013-03-28 03:02:00,41.0,35.0,30.29,East,83,1.0,2.0,78,0.00,,,0.00,,2013-03-28 08:02:00,
2013-03-28 03:12:00,41.0,35.0,30.29,East,83,1.0,2.0,78,0.00,,,0.00,,2013-03-28 08:12:00,
2013-03-28 03:21:00,42.0,35.0,30.29,East,83,1.0,3.0,75,0.00,,,0.00,,2013-03-28 08:21:00,
2013-03-28 03:32:00,41.0,34.0,30.28,East,80,1.0,3.0,75,0.00,,,0.00,,2013-03-28 08:32:00,
2013-03-28 03:42:00,41.0,34.0,30.28,East,80,1.0,3.0,75,0.00,,,0.00,,2013-03-28 08:42:00,
2013-03-28 03:52:00,42.0,35.0,30.28,East,80,1.0,2.0,75,0.00,,,0.00,,2013-03-28 08:52:00,
2013-03-28 04:02:00,42.0,34.0,30.28,East,80,0.0,3.0,73,0.00,,,0.00,,2013-03-28 09:02:00,
2013-03-28 04:12:00,42.0,34.0,30.28,East,80,0.0,3.0,73,0.00,,,0.00,,2013-03-28 09:12:00,
2013-03-28 04:22:00,42.0,33.0,30.28,East,80,1.0,3.0,71,0.00,,,0.00,,2013-03-28 09:22:00,
2013-03-28 04:32:00,44.0,34.0,30.27,ESE,105,0.0,2.0,68,0.00,,,0.00,,2013-03-28 09:32:00,
2013-03-28 04:42:00,44.0,34.0,30.27,ESE,105,0.0,2.0,68,0.00,,,0.00,,2013-03-28 09:42:00,
2013-03-28 04:52:00,43.0,34.0,30.27,ESE,105,0.0,4.0,69,0.00,,,0.00,,2013-03-28 09:52:00,
2013-03-28 05:03:00,42.0,34.0,30.27,SE,140,1.0,3.0,73,0.00,,,0.00,,2013-03-28 10:03:00,
2013-03-28 05:12:00,42.0,34.0,30.27,SE,140,1.0,3.0,73,0.00,,,0.00,,2013-03-28 10:12:00,
2013-03-28 05:22:00,39.0,33.0,30.29,SW,226,1.0,7.0,78,0.00,,,0.00,,2013-03-28 10:22:00,
2013-03-28 05:33:00,40.0,33.0,30.29,SW,231,0.0,3.0,76,0.00,,,0.00,,2013-03-28 10:33:00,
2013-03-28 05:42:00,40.0,33.0,30.29,SW,231,0.0,3.0,76,0.00,,,0.00,,2013-03-28 10:42:00,
2013-03-28 05:52:00,40.0,32.0,30.28,SW,231,0.0,0.0,72,0.00,,,0.00,,2013-03-28 10:52:00,
2013-03-28 06:02:00,40.0,32.0,30.28,SW,231,0.0,0.0,72,0.00,,,0.00,,2013-03-28 11:02:00,
2013-03-28 06:12:00,40.0,32.0,30.28,SW,231,0.0,0.0,72,0.00,,,0.00,,2013-03-28 11:12:00,
2013-03-28 06:23:00,40.0,33.0,30.28,SW,231,0.0,0.0,75,0.00,,,0.00,,2013-03-28 11:23:00,
2013-03-28 06:32:00,39.0,34.0,30.29,SW,231,0.0,0.0,81,0.00,,,0.00,,2013-03-28 11:32:00,
2013-03-28 06:42:00,39.0,34.0,30.29,SW,231,0.0,0.0,81,0.00,,,0.00,,2013-03-28 11:42:00,
2013-03-28 06:52:00,39.0,33.0,30.29,SW,231,0.0,0.0,80,0.00,,,0.00,,2013-03-28 11:52:00,
2013-03-28 07:02:00,39.0,33.0,30.29,SW,231,0.0,0.0,80,0.00,,,0.00,,2013-03-28 12:02:00,
2013-03-28 07:12:00,39.0,33.0,30.29,SW,231,0.0,0.0,80,0.00,,,0.00,,2013-03-28 12:12:00,
2013-03-28 07:22:00,39.0,35.0,30.29,SW,231,0.0,0.0,85,0.00,,,0.00,,2013-03-28 12:22:00,
2013-03-28 07:32:00,39.0,35.0,30.30,SW,231,0.0,0.0,84,0.00,,,0.00,,2013-03-28 12:32:00,
2013-03-28 07:42:00,39.0,35.0,30.30,SW,231,0.0,0.0,84,0.00,,,0.00,,2013-03-28 12:42:00,
2013-03-28 07:52:00,39.0,35.0,30.30,SW,231,0.0,0.0,85,0.00,,,0.00,,2013-03-28 12:52:00,
2013-03-28 08:02:00,38.0,34.0,30.31,SW,231,0.0,0.0,86,0.00,,,0.00,,2013-03-28 13:02:00,
2013-03-28 08:12:00,38.0,34.0,30.31,SW,231,0.0,0.0,86,0.00,,,0.00,,2013-03-28 13:12:00,
2013-03-28 08:22:00,40.0,36.0,30.32,SW,231,0.0,0.0,86,0.00,,,0.00,,2013-03-28 13:22:00,
2013-03-28 08:32:00,42.0,35.0,30.32,SW,231,0.0,0.0,76,0.00,,,0.00,,2013-03-28 13:32:00,
2013-03-28 08:42:00,42.0,35.0,30.32,SW,231,0.0,0.0,76,0.00,,,0.00,,2013-03-28 13:42:00,
2013-03-28 08:52:00,43.0,35.0,30.33,SW,230,0.0,0.0,73,0.00,,,0.00,,2013-03-28 13:52:00,
2013-03-28 09:02:00,44.0,35.0,30.33,SW,227,0.0,0.0,70,0.00,,,0.00,,2013-03-28 14:02:00,
2013-03-28 09:12:00,44.0,35.0,30.33,SW,227,0.0,0.0,70,0.00,,,0.00,,2013-03-28 14:12:00,
2013-03-28 09:22:00,46.0,37.0,30.34,SSW,197,0.0,3.0,70,0.00,,,0.00,,2013-03-28 14:22:00,
2013-03-28 09:32:00,48.0,37.0,30.34,SSW,202,1.0,5.0,66,0.00,,,0.00,,2013-03-28 14:32:00,
2013-03-28 09:42:00,48.0,37.0,30.34,SSW,202,1.0,5.0,66,0.00,,,0.00,,2013-03-28 14:42:00,
2013-03-28 09:52:00,50.0,39.0,30.34,SSW,204,1.0,4.0,67,0.00,,,0.00,,2013-03-28 14:52:00,
2013-03-28 10:02:00,52.0,41.0,30.34,SW,223,1.0,3.0,65,0.00,,,0.00,,2013-03-28 15:02:00,
2013-03-28 10:12:00,52.0,41.0,30.34,SW,223,1.0,3.0,65,0.00,,,0.00,,2013-03-28 15:12:00,
2013-03-28 10:22:00,54.0,41.0,30.35,SW,223,0.0,1.0,62,0.00,,,0.00,,2013-03-28 15:22:00,
2013-03-28 10:33:00,55.0,42.0,30.34,South,183,1.0,4.0,61,0.00,,,0.00,,2013-03-28 15:33:00,
2013-03-28 10:43:00,55.0,42.0,30.34,South,183,1.0,4.0,61,0.00,,,0.00,,2013-03-28 15:43:00,
2013-03-28 10:52:00,56.0,42.0,30.35,WSW,240,0.0,5.0,60,0.00,,,0.00,,2013-03-28 15:52:00,
2013-03-28 11:02:00,57.0,41.0,30.35,WSW,249,2.0,5.0,56,0.00,,,0.00,,2013-03-28 16:02:00,
2013-03-28 11:12:00,57.0,41.0,30.35,WSW,249,2.0,5.0,56,0.00,,,0.00,,2013-03-28 16:12:00,
2013-03-28 11:23:00,58.0,40.0,30.35,SW,225,4.0,6.0,51,0.00,,,0.00,,2013-03-28 16:23:00,
2013-03-28 11:32:00,58.0,39.0,30.35,WSW,252,0.0,7.0,50,0.00,,,0.00,,2013-03-28 16:32:00,
2013-03-28 11:42:00,58.0,39.0,30.35,WSW,252,0.0,7.0,50,0.00,,,0.00,,2013-03-28 16:42:00,
2013-03-28 11:52:00,59.0,40.0,30.35,SW,221,2.0,7.0,50,0.00,,,0.00,,2013-03-28 16:52:00,
2013-03-28 12:02:00,60.0,40.0,30.34,SSE,168,2.0,8.0,47,0.00,,,0.00,,2013-03-28 17:02:00,
2013-03-28 12:12:00,60.0,40.0,30.34,SSE,168,2.0,8.0,47,0.00,,,0.00,,2013-03-28 17:12:00,
2013-03-28 12:22:00,61.0,41.0,30.33,ENE,61,3.0,5.0,48,0.00,,,0.00,,2013-03-28 17:22:00,
2013-03-28 12:32:00,62.0,40.0,30.33,WSW,253,2.0,6.0,44,0.00,,,0.00,,2013-03-28 17:32:00,
2013-03-28 12:42:00,62.0,40.0,30.33,WSW,253,2.0,6.0,44,0.00,,,0.00,,2013-03-28 17:42:00,
2013-03-28 12:52:00,62.0,39.0,30.32,SW,227,2.0,9.0,42,0.00,,,0.00,,2013-03-28 17:52:00,
2013-03-28 13:02:00,63.0,40.0,30.32,SSW,194,2.0,8.0,42,0.00,,,0.00,,2013-03-28 18:02:00,
2013-03-28 13:12:00,63.0,40.0,30.32,SSW,194,2.0,8.0,42,0.00,,,0.00,,2013-03-28 18:12:00,
2013-03-28 13:22:00,64.0,37.0,30.31,SW,227,5.0,10.0,37,0.00,,,0.00,,2013-03-28 18:22:00,
2013-03-28 13:32:00,64.0,36.0,30.30,NW,309,1.0,7.0,35,0.00,,,0.00,,2013-03-28 18:32:00,
2013-03-28 13:42:00,64.0,36.0,30.30,NW,309,1.0,7.0,35,0.00,,,0.00,,2013-03-28 18:42:00,
2013-03-28 13:52:00,65.0,36.0,30.29,SW,216,3.0,9.0,34,0.00,,,0.00,,2013-03-28 18:52:00,
2013-03-28 14:02:00,66.0,37.0,30.28,SW,233,6.0,10.0,34,0.00,,,0.00,,2013-03-28 19:02:00,
2013-03-28 14:12:00,66.0,37.0,30.28,SW,233,6.0,10.0,34,0.00,,,0.00,,2013-03-28 19:12:00,
2013-03-28 14:22:00,66.0,37.0,30.27,SSE,167,5.0,9.0,34,0.00,,,0.00,,2013-03-28 19:22:00,
2013-03-28 14:33:00,66.0,34.0,30.27,SW,221,4.0,9.0,31,0.00,,,0.00,,2013-03-28 19:33:00,
2013-03-28 14:42:00,66.0,34.0,30.27,SW,221,4.0,9.0,31,0.00,,,0.00,,2013-03-28 19:42:00,
2013-03-28 14:52:00,67.0,35.0,30.26,South,183,2.0,7.0,31,0.00,,,0.00,,2013-03-28 19:52:00,
2013-03-28 15:03:00,67.0,37.0,30.25,SSE,151,4.0,9.0,33,0.00,,,0.00,,2013-03-28 20:03:00,
2013-03-28 15:12:00,67.0,37.0,30.25,SSE,151,4.0,9.0,33,0.00,,,0.00,,2013-03-28 20:12:00,
2013-03-28 15:22:00,67.0,38.0,30.24,NE,55,1.0,4.0,34,0.00,,,0.00,,2013-03-28 20:22:00,
2013-03-28 15:32:00,69.0,37.0,30.23,NW,326,2.0,6.0,31,0.00,,,0.00,,2013-03-28 20:32:00,
2013-03-28 15:42:00,69.0,37.0,30.23,NW,326,2.0,6.0,31,0.00,,,0.00,,2013-03-28 20:42:00,
2013-03-28 15:52:00,69.0,37.0,30.23,NW,326,2.0,6.0,31,0.00,,,0.00,,2013-03-28 20:52:00,
2013-03-28 16:02:00,68.0,36.0,30.22,NE,39,3.0,9.0,31,0.00,,,0.00,,2013-03-28 21:02:00,
2013-03-28 16:12:00,68.0,36.0,30.22,NE,39,3.0,9.0,31,0.00,,,0.00,,2013-03-28 21:12:00,
2013-03-28 16:22:00,68.0,36.0,30.22,ENE,59,2.0,9.0,31,0.00,,,0.00,,2013-03-28 21:22:00,
2013-03-28 16:32:00,69.0,37.0,30.22,East,92,4.0,9.0,31,0.00,,,0.00,,2013-03-28 21:32:00,
2013-03-28 16:43:00,69.0,37.0,30.22,East,92,4.0,9.0,31,0.00,,,0.00,,2013-03-28 21:43:00,
2013-03-28 16:53:00,69.0,37.0,30.21,South,169,6.0,10.0,31,0.00,,,0.00,,2013-03-28 21:53:00,
2013-03-28 17:02:00,69.0,38.0,30.21,ESE,103,5.0,8.0,32,0.00,,,0.00,,2013-03-28 22:02:00,
2013-03-28 17:12:00,69.0,38.0,30.21,ESE,103,5.0,8.0,32,0.00,,,0.00,,2013-03-28 22:12:00,
2013-03-28 17:22:00,69.0,38.0,30.20,South,178,3.0,7.0,32,0.00,,,0.00,,2013-03-28 22:22:00,
2013-03-28 17:32:00,69.0,36.0,30.20,SSE,149,5.0,9.0,30,0.00,,,0.00,,2013-03-28 22:32:00,
2013-03-28 17:42:00,69.0,36.0,30.20,SSE,149,5.0,9.0,30,0.00,,,0.00,,2013-03-28 22:42:00,
2013-03-28 17:52:00,69.0,36.0,30.20,SSE,149,5.0,9.0,30,0.00,,,0.00,,2013-03-28 22:52:00,
2013-03-28 18:03:00,69.0,36.0,30.19,SE,125,4.0,8.0,30,0.00,,,0.00,,2013-03-28 23:03:00,
2013-03-28 18:12:00,69.0,36.0,30.19,SE,125,4.0,8.0,30,0.00,,,0.00,,2013-03-28 23:12:00,
2013-03-28 18:22:00,69.0,36.0,30.20,SE,133,5.0,13.0,30,0.00,,,0.00,,2013-03-28 23:22:00,
2013-03-28 18:32:00,69.0,37.0,30.20,SSE,147,4.0,7.0,31,0.00,,,0.00,,2013-03-28 23:32:00,
2013-03-28 18:42:00,69.0,37.0,30.20,SSE,147,4.0,7.0,31,0.00,,,0.00,,2013-03-28 23:42:00,
2013-03-28 18:52:00,68.0,35.0,30.20,South,190,5.0,8.0,30,0.00,,,0.00,,2013-03-28 23:52:00,
2013-03-28 19:02:00,68.0,36.0,30.20,SSE,161,4.0,8.0,31,0.00,,,0.00,,2013-03-29 00:02:00,
2013-03-28 19:12:00,68.0,36.0,30.20,SSE,161,4.0,8.0,31,0.00,,,0.00,,2013-03-29 00:12:00,
2013-03-28 19:22:00,67.0,36.0,30.20,SE,144,2.0,5.0,32,0.00,,,0.00,,2013-03-29 00:22:00,
2013-03-28 19:32:00,67.0,37.0,30.21,SSE,154,3.0,6.0,33,0.00,,,0.00,,2013-03-29 00:32:00,
2013-03-28 19:42:00,67.0,37.0,30.21,SSE,154,3.0,6.0,33,0.00,,,0.00,,2013-03-29 00:42:00,
2013-03-28 19:52:00,66.0,37.0,30.21,SE,143,2.0,5.0,34,0.00,,,0.00,,2013-03-29 00:52:00,
2013-03-28 20:02:00,64.0,37.0,30.22,SSE,147,0.0,2.0,36,0.00,,,0.00,,2013-03-29 01:02:00,
2013-03-28 20:12:00,64.0,37.0,30.22,SSE,147,0.0,2.0,36,0.00,,,0.00,,2013-03-29 01:12:00,
2013-03-28 20:22:00,64.0,38.0,30.22,SSE,147,0.0,1.0,38,0.00,,,0.00,,2013-03-29 01:22:00,
2013-03-28 20:32:00,63.0,36.0,30.22,SE,132,0.0,1.0,37,0.00,,,0.00,,2013-03-29 01:32:00,
2013-03-28 20:42:00,63.0,36.0,30.22,SE,132,0.0,1.0,37,0.00,,,0.00,,2013-03-29 01:42:00,
2013-03-28 20:52:00,63.0,36.0,30.22,SE,132,0.0,2.0,37,0.00,,,0.00,,2013-03-29 01:52:00,
2013-03-28 21:02:00,62.0,35.0,30.22,SE,132,0.0,2.0,37,0.00,,,0.00,,2013-03-29 02:02:00,
2013-03-28 21:12:00,62.0,35.0,30.22,SE,132,0.0,2.0,37,0.00,,,0.00,,2013-03-29 02:12:00,
2013-03-28 21:22:00,62.0,35.0,30.22,SE,133,1.0,3.0,37,0.00,,,0.00,,2013-03-29 02:22:00,
2013-03-28 21:32:00,60.0,36.0,30.23,SE,133,0.0,1.0,40,0.00,,,0.00,,2013-03-29 02:32:00,
2013-03-28 21:42:00,60.0,36.0,30.23,SE,133,0.0,1.0,40,0.00,,,0.00,,2013-03-29 02:42:00,
2013-03-28 21:52:00,57.0,45.0,30.23,SE,133,0.0,0.0,63,0.00,,,0.00,,2013-03-29 02:52:00,
2013-03-28 22:02:00,56.0,45.0,30.23,SE,133,0.0,0.0,66,0.00,,,0.00,,2013-03-29 03:02:00,
2013-03-28 22:12:00,56.0,45.0,30.23,SE,133,0.0,0.0,66,0.00,,,0.00,,2013-03-29 03:12:00,
2013-03-28 22:22:00,55.0,41.0,30.24,SE,133,0.0,0.0,59,0.00,,,0.00,,2013-03-29 03:22:00,
2013-03-28 22:32:00,54.0,40.0,30.24,SE,133,0.0,0.0,59,0.00,,,0.00,,2013-03-29 03:32:00,
2013-03-28 22:42:00,54.0,40.0,30.24,SE,133,0.0,0.0,59,0.00,,,0.00,,2013-03-29 03:42:00,
2013-03-28 22:53:00,57.0,36.0,30.24,SE,138,1.0,4.0,45,0.00,,,0.00,,2013-03-29 03:53:00,
2013-03-28 23:03:00,57.0,36.0,30.24,SE,142,1.0,3.0,45,0.00,,,0.00,,2013-03-29 04:03:00,
2013-03-28 23:13:00,57.0,36.0,30.24,SE,142,1.0,3.0,45,0.00,,,0.00,,2013-03-29 04:13:00,
2013-03-28 23:22:00,57.0,35.0,30.24,SE,142,0.0,2.0,44,0.00,,,0.00,,2013-03-29 04:22:00,
2013-03-28 23:33:00,57.0,36.0,30.23,SE,136,1.0,3.0,46,0.00,,,0.00,,2013-03-29 04:33:00,
2013-03-28 23:43:00,57.0,36.0,30.23,SE,136,1.0,3.0,46,0.00,,,0.00,,2013-03-29 04:43:00,
2013-03-28 23:52:00,57.0,36.0,30.24,SE,137,0.0,2.0,46,0.00,,,0.00,,2013-03-29 04:52:00,